Time;durP1;ratioP1;P1;durP2;ratioP2;P2;SDS_P1;SDS_P2;PMS_P1;PMS_P2;Temp;Humidity;BMP_temperature;BMP_pressure;BME280_temperature;BME280_humidity;BME280_pressure;Samples;Min_cycle;Max_cycle;Signal;HPM_P1;HPM_P2
2024/01/22 00:01:26;;;;;;;19.40;11.93;;;;;;;;;;5034040;28;20037;-73
2024/01/22 00:03:52;;;;;;;11.23;8.90;;;;;;;;;;5052145;28;20043;-73
2024/01/22 00:06:18;;;;;;;17.38;11.70;;;;;;;;;;5033178;28;20171;-72
2024/01/22 00:08:44;;;;;;;22.00;12.57;;;;;;;;;;5052266;28;20045;-72
2024/01/22 00:11:10;;;;;;;11.80;7.88;;;;;;;;;;5051158;28;20029;-73
2024/01/22 00:13:37;;;;;;;12.68;9.77;;;;;;;;;;5051042;28;20124;-72
2024/01/22 00:16:03;;;;;;;17.40;9.02;;;;;;;;;;5050428;28;20095;-73
2024/01/22 00:18:29;;;;;;;18.50;12.48;;;;;;;;;;5050910;28;20036;-72
2024/01/22 00:20:55;;;;;;;23.85;15.43;;;;;;;;;;5051942;28;20037;-71
2024/01/22 00:23:21;;;;;;;16.95;10.90;;;;;;;;;;5050372;28;20039;-71
2024/01/22 00:25:47;;;;;;;20.08;11.60;;;;;;;;;;5032515;28;20396;-72
2024/01/22 00:28:13;;;;;;;16.20;12.45;;;;;;;;;;5050353;28;20020;-71
2024/01/22 00:30:40;;;;;;;24.40;14.38;;;;;;;;;;5050676;28;20458;-73
2024/01/22 00:33:06;;;;;;;23.08;12.65;;;;;;;;;;5050271;28;20064;-70
2024/01/22 00:35:31;;;;;;;22.27;11.48;;;;;;;;;;5050717;28;20080;-72
2024/01/22 00:37:57;;;;;;;9.50;7.65;;;;;;;;;;5051266;28;20056;-71
2024/01/22 00:40:23;;;;;;;19.85;12.25;;;;;;;;;;5055875;28;20341;-70
2024/01/22 00:42:49;;;;;;;21.05;11.27;;;;;;;;;;5034759;28;20020;-71
2024/01/22 00:45:15;;;;;;;25.20;13.57;;;;;;;;;;5050097;28;20044;-70
2024/01/22 00:47:40;;;;;;;23.42;11.50;;;;;;;;;;5049916;28;20041;-72
2024/01/22 00:50:06;;;;;;;19.35;10.20;;;;;;;;;;5050016;28;20132;-73
2024/01/22 00:52:32;;;;;;;20.27;11.73;;;;;;;;;;5042403;28;20037;-72
2024/01/22 00:54:58;;;;;;;23.42;13.85;;;;;;;;;;5032191;28;20040;-72
2024/01/22 00:57:24;;;;;;;19.92;12.63;;;;;;;;;;5049603;28;20041;-71
2024/01/22 00:59:50;;;;;;;17.50;12.73;;;;;;;;;;5032400;28;20048;-71
2024/01/22 01:02:16;;;;;;;22.83;13.45;;;;;;;;;;5049753;28;20094;-71
2024/01/22 01:04:42;;;;;;;12.43;10.02;;;;;;;;;;5050974;28;20037;-72
2024/01/22 01:07:08;;;;;;;16.42;11.02;;;;;;;;;;5031465;28;20029;-72
2024/01/22 01:09:34;;;;;;;6.60;5.57;;;;;;;;;;5031678;28;20037;-71
2024/01/22 01:12:00;;;;;;;15.90;10.43;;;;;;;;;;5031852;28;20062;-72
2024/01/22 01:14:25;;;;;;;10.35;9.32;;;;;;;;;;5030556;28;20056;-71
2024/01/22 01:16:51;;;;;;;25.42;15.60;;;;;;;;;;5050734;28;20091;-71
2024/01/22 01:19:17;;;;;;;17.48;9.82;;;;;;;;;;4993062;28;20571;-72
2024/01/22 01:21:43;;;;;;;16.38;10.57;;;;;;;;;;5032180;28;20104;-71
2024/01/22 01:24:09;;;;;;;9.80;7.88;;;;;;;;;;5048545;28;20037;-71
2024/01/22 01:26:42;;;;;;;20.10;12.32;;;;;;;;;;5031177;28;20032;-71
2024/01/22 01:29:08;;;;;;;13.70;9.98;;;;;;;;;;5031507;28;20032;-72
2024/01/22 01:31:34;;;;;;;13.57;9.48;;;;;;;;;;5050472;28;20048;-71
2024/01/22 01:34:00;;;;;;;21.60;14.52;;;;;;;;;;5049007;28;20066;-72
2024/01/22 01:36:26;;;;;;;14.73;7.93;;;;;;;;;;5014804;28;20033;-72
2024/01/22 01:38:51;;;;;;;11.63;8.55;;;;;;;;;;5048984;28;20029;-72
2024/01/22 01:41:17;;;;;;;28.38;15.30;;;;;;;;;;5048695;28;20171;-72
2024/01/22 01:43:43;;;;;;;16.38;9.20;;;;;;;;;;5050409;28;20429;-72
2024/01/22 01:46:09;;;;;;;27.13;11.38;;;;;;;;;;5048852;28;20048;-71
2024/01/22 01:48:35;;;;;;;9.60;7.10;;;;;;;;;;5048738;28;20381;-71
2024/01/22 01:51:01;;;;;;;21.13;10.50;;;;;;;;;;5048914;28;20032;-71
2024/01/22 01:53:27;;;;;;;27.00;14.35;;;;;;;;;;5048558;28;20754;-72
2024/01/22 01:55:53;;;;;;;23.10;12.10;;;;;;;;;;5050222;28;20127;-72
2024/01/22 01:58:19;;;;;;;31.80;13.20;;;;;;;;;;5048234;28;20025;-72
2024/01/22 02:00:46;;;;;;;21.77;11.05;;;;;;;;;;5031348;28;20049;-72
2024/01/22 02:03:12;;;;;;;25.08;13.13;;;;;;;;;;4996342;28;20084;-72
2024/01/22 02:05:38;;;;;;;19.35;11.70;;;;;;;;;;5030506;28;20033;-72
2024/01/22 02:08:04;;;;;;;20.40;11.73;;;;;;;;;;5048646;28;20037;-71
2024/01/22 02:10:30;;;;;;;23.02;9.93;;;;;;;;;;5031806;28;20123;-72
2024/01/22 02:12:56;;;;;;;11.95;8.70;;;;;;;;;;5049324;28;20492;-72
2024/01/22 02:15:21;;;;;;;23.63;12.73;;;;;;;;;;5048238;28;20467;-71
2024/01/22 02:17:47;;;;;;;17.80;10.73;;;;;;;;;;5013365;28;20060;-71
2024/01/22 02:20:14;;;;;;;18.67;11.43;;;;;;;;;;5048161;28;20036;-71
2024/01/22 02:22:40;;;;;;;16.95;11.38;;;;;;;;;;5029707;28;20029;-72
2024/01/22 02:25:06;;;;;;;21.15;12.15;;;;;;;;;;5047628;28;20099;-70
2024/01/22 02:27:32;;;;;;;17.40;10.38;;;;;;;;;;5007119;28;20068;-71
2024/01/22 02:29:57;;;;;;;16.58;11.18;;;;;;;;;;5050377;28;20067;-71
2024/01/22 02:32:23;;;;;;;18.98;11.57;;;;;;;;;;5051757;28;20059;-71
2024/01/22 02:34:49;;;;;;;19.52;10.43;;;;;;;;;;5049519;28;20049;-71
2024/01/22 02:37:15;;;;;;;20.50;10.13;;;;;;;;;;5047519;28;20182;-71
2024/01/22 02:39:41;;;;;;;17.85;11.07;;;;;;;;;;5048163;28;20033;-71
2024/01/22 02:42:08;;;;;;;10.65;7.95;;;;;;;;;;5048114;28;20025;-73
2024/01/22 02:44:35;;;;;;;23.83;11.45;;;;;;;;;;5046844;28;20099;-72
2024/01/22 02:47:02;;;;;;;9.40;7.57;;;;;;;;;;5048721;28;20554;-71
2024/01/22 02:49:28;;;;;;;16.15;9.57;;;;;;;;;;5048082;28;20510;-73
2024/01/22 02:51:54;;;;;;;17.90;9.45;;;;;;;;;;5047557;28;20064;-72
2024/01/22 02:54:19;;;;;;;13.00;8.45;;;;;;;;;;5046915;28;20492;-71
2024/01/22 02:56:45;;;;;;;21.63;12.48;;;;;;;;;;5047335;28;20025;-72
2024/01/22 02:59:11;;;;;;;11.13;8.98;;;;;;;;;;5029110;28;20041;-72
2024/01/22 03:01:37;;;;;;;8.93;5.53;;;;;;;;;;5048623;28;20029;-71
2024/01/22 03:04:03;;;;;;;12.43;8.68;;;;;;;;;;5029350;28;20106;-74
2024/01/22 03:06:29;;;;;;;8.18;6.22;;;;;;;;;;5047035;28;20144;-72
2024/01/22 03:08:55;;;;;;;13.30;10.77;;;;;;;;;;5045988;28;20128;-72
2024/01/22 03:11:22;;;;;;;12.95;9.90;;;;;;;;;;5012710;28;20907;-72
2024/01/22 03:13:48;;;;;;;20.10;12.05;;;;;;;;;;5048494;28;20515;-72
2024/01/22 03:16:13;;;;;;;11.70;8.75;;;;;;;;;;5047965;28;20054;-72
2024/01/22 03:18:39;;;;;;;10.20;6.90;;;;;;;;;;5049694;28;20029;-70
2024/01/22 03:21:05;;;;;;;9.82;7.03;;;;;;;;;;5048655;28;20025;-71
2024/01/22 03:23:31;;;;;;;10.57;9.30;;;;;;;;;;5048041;28;20029;-71
2024/01/22 03:25:57;;;;;;;16.58;8.48;;;;;;;;;;5044334;28;20032;-71
2024/01/22 03:28:23;;;;;;;11.07;7.90;;;;;;;;;;5029738;28;20127;-71
2024/01/22 03:30:49;;;;;;;9.27;8.05;;;;;;;;;;5013255;28;20032;-70
2024/01/22 03:33:15;;;;;;;19.95;10.40;;;;;;;;;;5047054;28;20033;-71
2024/01/22 03:35:41;;;;;;;12.85;8.40;;;;;;;;;;5047036;28;20037;-71
2024/01/22 03:38:07;;;;;;;19.08;10.38;;;;;;;;;;5047258;28;20056;-70
2024/01/22 03:40:33;;;;;;;13.07;8.98;;;;;;;;;;5027903;28;20052;-72
2024/01/22 03:42:59;;;;;;;16.05;10.82;;;;;;;;;;5046826;28;20044;-72
2024/01/22 03:45:25;;;;;;;18.55;8.82;;;;;;;;;;5012150;28;20384;-71
2024/01/22 03:47:50;;;;;;;11.52;8.02;;;;;;;;;;5028880;28;20040;-71
2024/01/22 03:50:17;;;;;;;14.55;9.43;;;;;;;;;;5046652;28;20037;-72
2024/01/22 03:52:43;;;;;;;8.82;7.85;;;;;;;;;;5026326;28;20036;-70
2024/01/22 03:55:09;;;;;;;6.47;5.70;;;;;;;;;;5041634;28;20415;-74
2024/01/22 03:57:35;;;;;;;9.25;8.35;;;;;;;;;;5043651;28;20037;-71
2024/01/22 04:00:01;;;;;;;9.35;6.15;;;;;;;;;;5046491;28;20037;-71
2024/01/22 04:02:27;;;;;;;16.40;8.93;;;;;;;;;;5046299;28;20036;-72
2024/01/22 04:04:54;;;;;;;6.28;5.78;;;;;;;;;;5047900;28;20070;-72
2024/01/22 04:07:19;;;;;;;8.98;6.85;;;;;;;;;;5044823;28;20546;-72
2024/01/22 04:09:45;;;;;;;10.10;7.22;;;;;;;;;;5046846;28;20132;-71
2024/01/22 04:12:11;;;;;;;3.03;2.75;;;;;;;;;;5028966;28;20033;-73
2024/01/22 04:14:37;;;;;;;8.45;7.25;;;;;;;;;;5010208;28;20400;-72
2024/01/22 04:17:02;;;;;;;14.27;9.07;;;;;;;;;;5031600;28;20060;-71
2024/01/22 04:19:28;;;;;;;19.75;11.93;;;;;;;;;;5031653;28;20037;-71
2024/01/22 04:21:54;;;;;;;18.98;12.23;;;;;;;;;;5052138;28;20021;-71
2024/01/22 04:24:20;;;;;;;22.65;13.35;;;;;;;;;;5029369;28;20120;-72
2024/01/22 04:26:46;;;;;;;6.95;6.13;;;;;;;;;;5043233;28;20557;-72
2024/01/22 04:29:12;;;;;;;10.00;8.07;;;;;;;;;;5046258;28;20041;-72
2024/01/22 04:31:38;;;;;;;11.77;9.48;;;;;;;;;;5047930;28;20040;-72
2024/01/22 04:34:04;;;;;;;19.55;7.18;;;;;;;;;;5046167;28;20501;-71
2024/01/22 04:36:30;;;;;;;16.83;7.65;;;;;;;;;;5008746;28;20053;-71
2024/01/22 04:38:56;;;;;;;9.80;8.38;;;;;;;;;;5041239;28;20060;-73
2024/01/22 04:41:22;;;;;;;9.80;7.88;;;;;;;;;;5045953;28;20056;-71
2024/01/22 04:43:48;;;;;;;9.27;7.18;;;;;;;;;;5047378;28;20037;-72
2024/01/22 04:46:13;;;;;;;11.75;7.53;;;;;;;;;;5046034;28;20037;-72
2024/01/22 04:48:39;;;;;;;13.43;9.75;;;;;;;;;;5048398;28;20537;-72
2024/01/22 04:51:06;;;;;;;18.73;9.95;;;;;;;;;;5049687;28;20032;-73
2024/01/22 04:53:32;;;;;;;8.95;7.80;;;;;;;;;;5031970;28;20407;-72
2024/01/22 04:55:58;;;;;;;14.77;8.75;;;;;;;;;;5049445;28;20036;-72
2024/01/22 04:58:23;;;;;;;13.32;9.10;;;;;;;;;;5031645;28;20022;-71
2024/01/22 05:00:49;;;;;;;11.07;7.53;;;;;;;;;;5050927;28;20510;-72
2024/01/22 05:03:15;;;;;;;10.73;8.27;;;;;;;;;;5031327;28;20407;-73
2024/01/22 05:05:41;;;;;;;12.10;7.78;;;;;;;;;;5049216;28;20087;-71
2024/01/22 05:08:07;;;;;;;14.00;7.75;;;;;;;;;;5031511;28;20040;-71
2024/01/22 05:10:33;;;;;;;17.52;9.35;;;;;;;;;;5048959;28;20396;-71
2024/01/22 05:12:59;;;;;;;16.23;8.10;;;;;;;;;;5032912;28;20032;-72
2024/01/22 05:15:25;;;;;;;14.02;9.15;;;;;;;;;;5048770;28;20088;-71
2024/01/22 05:17:51;;;;;;;13.63;9.93;;;;;;;;;;5049166;28;20033;-71
2024/01/22 05:20:17;;;;;;;23.27;9.63;;;;;;;;;;5031424;28;20037;-72
2024/01/22 05:22:44;;;;;;;20.63;10.50;;;;;;;;;;5049209;28;20033;-72
2024/01/22 05:25:10;;;;;;;25.08;13.13;;;;;;;;;;5049522;28;20130;-72
2024/01/22 05:27:36;;;;;;;21.95;12.20;;;;;;;;;;5050332;28;20033;-72
2024/01/22 05:30:02;;;;;;;21.48;11.57;;;;;;;;;;5031430;28;20044;-72
2024/01/22 05:32:32;;;;;;;18.80;12.60;;;;;;;;;;5031924;28;20127;-71
2024/01/22 05:34:58;;;;;;;21.73;11.27;;;;;;;;;;5048646;28;20048;-71
2024/01/22 05:37:23;;;;;;;20.90;10.68;;;;;;;;;;5014220;28;20053;-71
2024/01/22 05:39:49;;;;;;;12.32;8.45;;;;;;;;;;5050244;28;20106;-72
2024/01/22 05:42:15;;;;;;;18.05;9.73;;;;;;;;;;5031513;28;20444;-72
2024/01/22 05:44:41;;;;;;;12.57;7.57;;;;;;;;;;5049051;28;20041;-72
2024/01/22 05:47:07;;;;;;;18.60;11.48;;;;;;;;;;5048995;28;20029;-72
2024/01/22 05:49:32;;;;;;;15.73;8.27;;;;;;;;;;5048979;28;20506;-72
2024/01/22 05:51:58;;;;;;;17.63;9.95;;;;;;;;;;5050061;28;20502;-72
2024/01/22 05:54:24;;;;;;;12.77;8.90;;;;;;;;;;5048095;28;20678;-71
2024/01/22 05:56:50;;;;;;;21.75;9.73;;;;;;;;;;5048273;28;20598;-72
2024/01/22 05:59:16;;;;;;;21.98;11.13;;;;;;;;;;5030270;28;20572;-72
2024/01/22 06:01:42;;;;;;;15.50;10.15;;;;;;;;;;5045451;28;20167;-73
2024/01/22 06:04:09;;;;;;;10.95;8.95;;;;;;;;;;5042876;28;20120;-72
2024/01/22 06:06:36;;;;;;;15.25;9.65;;;;;;;;;;5007444;28;20029;-73
2024/01/22 06:09:02;;;;;;;22.42;11.48;;;;;;;;;;5047048;28;20045;-73
2024/01/22 06:11:30;;;;;;;25.08;10.65;;;;;;;;;;5039792;28;20036;-71
2024/01/22 06:13:56;;;;;;;16.75;10.40;;;;;;;;;;5036175;28;20143;-74
2024/01/22 06:16:22;;;;;;;18.88;10.90;;;;;;;;;;5012487;28;20033;-73
2024/01/22 06:18:48;;;;;;;12.57;6.72;;;;;;;;;;5014996;28;20021;-72
2024/01/22 06:21:14;;;;;;;15.10;10.35;;;;;;;;;;5031107;28;20044;-73
2024/01/22 06:23:41;;;;;;;15.98;9.52;;;;;;;;;;5032911;28;20063;-72
2024/01/22 06:26:08;;;;;;;17.20;11.07;;;;;;;;;;5048384;28;20514;-71
2024/01/22 06:28:34;;;;;;;10.90;7.80;;;;;;;;;;5047569;28;20128;-72
2024/01/22 06:31:00;;;;;;;15.73;8.60;;;;;;;;;;5029234;28;20073;-73
2024/01/22 06:33:26;;;;;;;7.93;6.00;;;;;;;;;;5030253;28;20584;-72
2024/01/22 06:35:52;;;;;;;14.98;7.93;;;;;;;;;;5030645;28;20126;-73
2024/01/22 06:38:18;;;;;;;9.90;5.95;;;;;;;;;;5049428;28;20450;-76
2024/01/22 06:40:44;;;;;;;15.90;9.98;;;;;;;;;;5021720;28;20041;-73
2024/01/22 06:43:10;;;;;;;21.00;12.32;;;;;;;;;;5029774;28;20029;-73
2024/01/22 06:45:36;;;;;;;10.55;7.78;;;;;;;;;;5047214;28;20116;-72
2024/01/22 06:48:02;;;;;;;10.52;9.18;;;;;;;;;;5045039;28;20036;-73
2024/01/22 06:50:28;;;;;;;22.23;13.27;;;;;;;;;;5047984;28;20040;-73
2024/01/22 06:52:54;;;;;;;12.55;8.35;;;;;;;;;;5029640;28;20062;-75
2024/01/22 06:55:20;;;;;;;15.45;9.80;;;;;;;;;;5012326;28;20511;-74
2024/01/22 06:57:46;;;;;;;15.57;11.65;;;;;;;;;;5029385;28;20052;-74
2024/01/22 07:00:15;;;;;;;12.02;7.63;;;;;;;;;;5046899;28;20114;-74
2024/01/22 07:02:43;;;;;;;20.15;13.25;;;;;;;;;;4989481;28;20500;-73
2024/01/22 07:05:12;;;;;;;22.90;14.18;;;;;;;;;;5048492;28;20045;-73
2024/01/22 07:07:37;;;;;;;15.77;7.90;;;;;;;;;;5048242;28;20529;-73
2024/01/22 07:10:05;;;;;;;17.58;10.30;;;;;;;;;;5048058;28;20079;-73
2024/01/22 07:12:31;;;;;;;26.50;14.73;;;;;;;;;;5047411;28;20036;-73
2024/01/22 07:14:57;;;;;;;24.13;14.32;;;;;;;;;;5048023;28;20214;-73
2024/01/22 07:17:23;;;;;;;18.75;9.93;;;;;;;;;;5047892;28;20411;-72
2024/01/22 07:19:49;;;;;;;14.52;10.45;;;;;;;;;;5030294;28;20079;-73
2024/01/22 07:22:14;;;;;;;11.65;8.98;;;;;;;;;;5029421;28;20586;-72
2024/01/22 07:24:40;;;;;;;8.32;7.20;;;;;;;;;;5029987;28;20047;-74
2024/01/22 07:27:07;;;;;;;12.30;9.35;;;;;;;;;;5030217;28;20033;-74
2024/01/22 07:29:34;;;;;;;11.10;8.45;;;;;;;;;;5047574;28;20083;-72
2024/01/22 07:32:00;;;;;;;14.68;10.40;;;;;;;;;;5047107;28;20036;-73
2024/01/22 07:34:26;;;;;;;10.50;6.43;;;;;;;;;;5029739;28;20045;-74
2024/01/22 07:36:52;;;;;;;12.57;9.45;;;;;;;;;;5047920;28;20132;-74
2024/01/22 07:39:18;;;;;;;9.80;6.60;;;;;;;;;;5047716;28;20064;-74
2024/01/22 07:41:44;;;;;;;10.25;8.20;;;;;;;;;;5047326;28;20456;-74
2024/01/22 07:44:10;;;;;;;9.70;7.65;;;;;;;;;;5046118;28;21748;-72
2024/01/22 07:46:36;;;;;;;9.23;6.38;;;;;;;;;;5046043;28;20029;-72
2024/01/22 07:49:01;;;;;;;12.15;6.38;;;;;;;;;;5028139;28;20032;-72
2024/01/22 07:51:29;;;;;;;10.18;6.75;;;;;;;;;;5022324;28;20086;-72
2024/01/22 07:53:55;;;;;;;15.30;10.38;;;;;;;;;;5044999;28;20047;-71
2024/01/22 07:56:20;;;;;;;10.88;7.05;;;;;;;;;;5045641;28;20028;-72
2024/01/22 07:58:46;;;;;;;7.80;5.80;;;;;;;;;;5045410;28;20037;-72
2024/01/22 08:01:12;;;;;;;8.38;7.30;;;;;;;;;;5047487;28;20044;-72
2024/01/22 08:03:38;;;;;;;7.40;6.68;;;;;;;;;;5029999;28;20270;-72
2024/01/22 08:06:04;;;;;;;15.02;8.60;;;;;;;;;;5027816;28;20032;-72
2024/01/22 08:08:30;;;;;;;12.48;8.63;;;;;;;;;;5012537;28;20063;-72
2024/01/22 08:10:56;;;;;;;9.85;7.97;;;;;;;;;;5045501;28;20093;-72
2024/01/22 08:13:22;;;;;;;10.82;7.38;;;;;;;;;;5027591;28;20032;-72
2024/01/22 08:15:48;;;;;;;16.30;10.20;;;;;;;;;;5027254;28;20096;-72
2024/01/22 08:18:14;;;;;;;5.40;4.35;;;;;;;;;;5046326;28;20076;-72
2024/01/22 08:20:40;;;;;;;6.55;5.78;;;;;;;;;;5045614;28;20040;-72
2024/01/22 08:23:06;;;;;;;15.80;8.55;;;;;;;;;;5030043;28;20044;-72
2024/01/22 08:25:32;;;;;;;11.65;8.77;;;;;;;;;;5049219;28;20513;-72
2024/01/22 08:27:58;;;;;;;11.15;7.80;;;;;;;;;;5031832;28;20135;-72
2024/01/22 08:30:24;;;;;;;11.35;9.25;;;;;;;;;;5049074;28;20562;-72
2024/01/22 08:32:51;;;;;;;13.93;8.52;;;;;;;;;;5049282;28;20041;-72
2024/01/22 08:35:20;;;;;;;13.60;9.23;;;;;;;;;;5049120;28;20198;-72
2024/01/22 08:37:52;;;;;;;15.00;11.73;;;;;;;;;;5030585;28;20057;-72
2024/01/22 08:40:21;;;;;;;19.00;11.63;;;;;;;;;;5049036;28;20492;-72
2024/01/22 08:42:50;;;;;;;18.63;11.38;;;;;;;;;;5030674;28;20430;-72
2024/01/22 08:45:16;;;;;;;13.90;9.82;;;;;;;;;;5039325;28;20280;-71
2024/01/22 08:47:44;;;;;;;15.52;9.95;;;;;;;;;;5013864;28;20151;-72
2024/01/22 08:50:11;;;;;;;12.35;8.27;;;;;;;;;;5029053;28;20613;-71
2024/01/22 08:52:37;;;;;;;12.93;10.25;;;;;;;;;;5051295;28;20190;-72
2024/01/22 08:55:05;;;;;;;12.98;7.70;;;;;;;;;;5033316;28;20051;-72
2024/01/22 08:57:31;;;;;;;12.32;8.45;;;;;;;;;;5032576;28;20033;-72
2024/01/22 08:59:57;;;;;;;17.20;9.43;;;;;;;;;;5033281;28;20037;-72
2024/01/22 09:02:23;;;;;;;13.00;10.23;;;;;;;;;;5048404;28;20028;-72
2024/01/22 09:04:49;;;;;;;10.45;8.98;;;;;;;;;;5018931;28;20043;-72
2024/01/22 09:07:14;;;;;;;7.28;4.85;;;;;;;;;;5016022;28;20025;-72
2024/01/22 09:09:41;;;;;;;10.10;8.70;;;;;;;;;;5051251;28;20029;-72
2024/01/22 09:12:07;;;;;;;7.88;5.57;;;;;;;;;;5051869;28;20032;-72
2024/01/22 09:14:32;;;;;;;9.68;7.43;;;;;;;;;;5032264;28;20044;-72
2024/01/22 09:16:58;;;;;;;11.27;7.82;;;;;;;;;;4999394;28;20029;-72
2024/01/22 09:19:24;;;;;;;9.95;7.82;;;;;;;;;;5032491;28;20090;-72
2024/01/22 09:21:50;;;;;;;8.65;7.70;;;;;;;;;;5049837;28;20068;-74
2024/01/22 09:24:17;;;;;;;6.22;5.63;;;;;;;;;;5033713;28;20047;-73
2024/01/22 09:26:43;;;;;;;7.70;6.25;;;;;;;;;;5050334;28;20035;-72
2024/01/22 09:29:08;;;;;;;6.75;5.28;;;;;;;;;;5051384;28;20407;-72
2024/01/22 09:31:34;;;;;;;11.50;8.95;;;;;;;;;;5016296;28;20041;-72
2024/01/22 09:34:00;;;;;;;8.57;6.15;;;;;;;;;;5050271;28;20527;-72
2024/01/22 09:36:26;;;;;;;13.27;9.70;;;;;;;;;;5050715;28;20037;-73
2024/01/22 09:38:51;;;;;;;11.50;7.60;;;;;;;;;;5049893;28;20033;-72
2024/01/22 09:41:18;;;;;;;9.70;8.30;;;;;;;;;;5032052;28;20033;-72
2024/01/22 09:43:44;;;;;;;6.25;4.90;;;;;;;;;;5031458;28;20037;-72
2024/01/22 09:46:10;;;;;;;9.13;6.60;;;;;;;;;;5050028;28;20040;-72
2024/01/22 09:48:36;;;;;;;7.07;4.68;;;;;;;;;;5015835;28;20048;-72
2024/01/22 09:51:01;;;;;;;11.55;8.25;;;;;;;;;;5032883;28;20041;-72
2024/01/22 09:53:28;;;;;;;10.57;8.07;;;;;;;;;;5040204;28;20100;-72
2024/01/22 09:55:54;;;;;;;7.68;6.45;;;;;;;;;;5036771;28;20139;-73
2024/01/22 09:58:27;;;;;;;8.38;7.20;;;;;;;;;;5016733;28;20025;-72
2024/01/22 10:00:53;;;;;;;9.63;7.75;;;;;;;;;;5048822;28;20730;-72
2024/01/22 10:03:19;;;;;;;11.10;9.35;;;;;;;;;;5019203;28;20129;-73
2024/01/22 10:05:45;;;;;;;10.48;6.90;;;;;;;;;;5049033;28;20039;-73
2024/01/22 10:08:11;;;;;;;6.38;5.72;;;;;;;;;;5049071;28;20419;-72
2024/01/22 10:10:37;;;;;;;6.78;6.18;;;;;;;;;;5031826;28;20033;-73
2024/01/22 10:13:04;;;;;;;7.10;5.82;;;;;;;;;;5050578;28;20051;-72
2024/01/22 10:15:30;;;;;;;9.95;6.85;;;;;;;;;;5050713;28;20041;-73
2024/01/22 10:18:09;;;;;;;8.60;7.43;;;;;;;;;;5031854;28;20040;-73
2024/01/22 10:20:35;;;;;;;7.00;6.38;;;;;;;;;;5049068;28;20499;-71
2024/01/22 10:23:01;;;;;;;10.20;7.28;;;;;;;;;;5048951;28;20025;-72
2024/01/22 10:25:27;;;;;;;7.82;5.93;;;;;;;;;;5049054;28;20033;-73
2024/01/22 10:28:16;;;;;;;8.95;7.50;;;;;;;;;;5030801;28;20029;-73
2024/01/22 10:30:44;;;;;;;12.05;8.57;;;;;;;;;;5048980;28;20037;-73
2024/01/22 10:33:10;;;;;;;8.18;6.57;;;;;;;;;;5048553;28;20448;-72
2024/01/22 10:35:36;;;;;;;12.43;8.60;;;;;;;;;;5049029;28;20057;-71
2024/01/22 10:38:06;;;;;;;8.77;7.88;;;;;;;;;;5031124;28;20573;-72
2024/01/22 10:40:32;;;;;;;10.63;5.78;;;;;;;;;;5031057;28;20045;-72
2024/01/22 10:42:58;;;;;;;6.78;5.43;;;;;;;;;;5049195;28;20032;-72
2024/01/22 10:45:25;;;;;;;6.63;6.00;;;;;;;;;;5048913;28;20091;-72
2024/01/22 10:47:51;;;;;;;7.18;6.47;;;;;;;;;;4998655;28;20028;-72
2024/01/22 10:50:18;;;;;;;7.05;6.32;;;;;;;;;;5032948;28;20032;-71
2024/01/22 10:52:44;;;;;;;9.85;7.43;;;;;;;;;;5034832;28;20071;-73
2024/01/22 10:55:10;;;;;;;6.22;4.85;;;;;;;;;;5022345;28;20074;-72
2024/01/22 10:57:37;;;;;;;11.13;6.65;;;;;;;;;;5057043;28;20029;-71
2024/01/22 11:00:06;;;;;;;5.70;5.15;;;;;;;;;;5040105;28;20120;-72
2024/01/22 11:02:34;;;;;;;7.05;6.40;;;;;;;;;;5036568;28;20021;-73
2024/01/22 11:05:04;;;;;;;5.65;4.45;;;;;;;;;;5033334;28;20069;-73
2024/01/22 11:07:30;;;;;;;4.57;4.20;;;;;;;;;;5036875;28;20033;-72
2024/01/22 11:09:57;;;;;;;7.35;5.18;;;;;;;;;;5051469;28;20055;-71
2024/01/22 11:12:23;;;;;;;5.47;4.68;;;;;;;;;;5031813;28;20036;-72
2024/01/22 11:14:49;;;;;;;10.18;6.15;;;;;;;;;;5031948;28;20053;-73
2024/01/22 11:17:15;;;;;;;5.78;4.70;;;;;;;;;;5049135;28;20389;-72
2024/01/22 11:19:41;;;;;;;6.18;5.57;;;;;;;;;;5031246;28;20102;-72
2024/01/22 11:22:33;;;;;;;7.68;6.30;;;;;;;;;;5031051;28;20037;-72
2024/01/22 11:25:00;;;;;;;6.18;4.97;;;;;;;;;;5044795;28;20151;-72
2024/01/22 11:27:38;;;;;;;12.23;6.50;;;;;;;;;;5030447;28;20033;-73
2024/01/22 11:30:20;;;;;;;6.22;4.53;;;;;;;;;;5028694;28;20340;-72
2024/01/22 11:32:46;;;;;;;6.10;5.30;;;;;;;;;;5012590;28;20419;-72
2024/01/22 11:35:12;;;;;;;7.95;6.47;;;;;;;;;;5047946;28;20049;-74
2024/01/22 11:37:38;;;;;;;4.82;4.43;;;;;;;;;;5013733;28;20052;-73
2024/01/22 11:40:06;;;;;;;8.23;5.75;;;;;;;;;;5048738;28;20036;-72
2024/01/22 11:42:33;;;;;;;8.73;6.78;;;;;;;;;;5033018;28;20029;-73
2024/01/22 11:45:12;;;;;;;7.05;6.00;;;;;;;;;;5037935;28;20132;-72
2024/01/22 11:47:38;;;;;;;6.72;5.68;;;;;;;;;;5049618;28;20032;-72
2024/01/22 11:50:06;;;;;;;4.90;4.50;;;;;;;;;;5010141;28;20041;-72
2024/01/22 11:52:33;;;;;;;7.63;5.88;;;;;;;;;;5048076;28;20075;-73
2024/01/22 11:55:03;;;;;;;2.83;2.70;;;;;;;;;;5047660;28;20045;-72
2024/01/22 11:57:31;;;;;;;6.47;5.40;;;;;;;;;;5030102;28;20097;-72
2024/01/22 12:00:05;;;;;;;3.08;2.88;;;;;;;;;;5029578;28;20564;-73
2024/01/22 12:02:41;;;;;;;4.50;4.00;;;;;;;;;;5048575;28;20033;-72
2024/01/22 12:05:09;;;;;;;6.47;5.78;;;;;;;;;;5048148;28;20039;-72
2024/01/22 12:07:39;;;;;;;4.13;3.75;;;;;;;;;;5029454;28;20040;-72
2024/01/22 12:10:26;;;;;;;5.82;5.15;;;;;;;;;;5029561;28;20029;-72
2024/01/22 12:12:54;;;;;;;4.45;4.05;;;;;;;;;;5047245;28;20040;-73
2024/01/22 12:15:21;;;;;;;9.77;6.65;;;;;;;;;;5029640;28;20083;-72
2024/01/22 12:17:47;;;;;;;7.38;6.20;;;;;;;;;;5047021;28;20041;-72
2024/01/22 12:20:14;;;;;;;11.48;7.78;;;;;;;;;;5029054;28;20392;-72
2024/01/22 12:22:40;;;;;;;5.72;3.70;;;;;;;;;;5047377;28;20100;-73
2024/01/22 12:25:09;;;;;;;11.77;6.60;;;;;;;;;;5029232;28;20095;-72
2024/01/22 12:27:35;;;;;;;4.93;3.83;;;;;;;;;;5013132;28;20029;-72
2024/01/22 12:30:14;;;;;;;7.03;4.95;;;;;;;;;;5012889;28;20048;-72
2024/01/22 12:32:49;;;;;;;6.60;5.30;;;;;;;;;;5030509;28;20531;-72
2024/01/22 12:35:16;;;;;;;5.55;4.03;;;;;;;;;;5029393;28;20538;-72
2024/01/22 12:37:42;;;;;;;7.55;5.53;;;;;;;;;;5025612;28;20055;-72
2024/01/22 12:40:09;;;;;;;7.80;6.47;;;;;;;;;;5027054;28;20037;-72
2024/01/22 12:42:35;;;;;;;6.53;4.20;;;;;;;;;;5025952;28;20029;-72
2024/01/22 12:45:01;;;;;;;7.72;6.15;;;;;;;;;;5026902;28;20106;-72
2024/01/22 12:47:33;;;;;;;9.75;6.30;;;;;;;;;;5027228;28;20065;-72
2024/01/22 12:49:59;;;;;;;5.25;4.75;;;;;;;;;;5026658;28;20037;-72
2024/01/22 12:52:25;;;;;;;7.13;5.43;;;;;;;;;;5027429;28;20124;-72
2024/01/22 12:54:51;;;;;;;7.43;5.90;;;;;;;;;;5015936;28;20140;-71
2024/01/22 12:57:17;;;;;;;5.57;5.07;;;;;;;;;;4989720;28;20455;-72
2024/01/22 13:00:03;;;;;;;4.07;3.75;;;;;;;;;;5007392;28;20042;-72
2024/01/22 13:02:30;;;;;;;8.85;5.45;;;;;;;;;;5007137;28;20153;-72
2024/01/22 13:04:56;;;;;;;8.15;4.53;;;;;;;;;;5007568;28;20636;-71
2024/01/22 13:07:22;;;;;;;7.82;5.32;;;;;;;;;;5008541;28;20104;-74
2024/01/22 13:09:48;;;;;;;7.35;3.53;;;;;;;;;;5008757;28;20179;-72
2024/01/22 13:12:14;;;;;;;5.82;5.03;;;;;;;;;;5011065;28;20044;-72
2024/01/22 13:14:40;;;;;;;9.10;5.22;;;;;;;;;;5010358;28;20108;-73
2024/01/22 13:17:08;;;;;;;6.82;5.30;;;;;;;;;;4993112;28;20033;-72
2024/01/22 13:19:33;;;;;;;4.80;4.40;;;;;;;;;;5010780;28;20711;-74
2024/01/22 13:22:08;;;;;;;4.63;3.78;;;;;;;;;;5010076;28;20116;-73
2024/01/22 13:24:34;;;;;;;6.18;5.38;;;;;;;;;;5010682;28;20065;-72
2024/01/22 13:27:00;;;;;;;7.00;5.97;;;;;;;;;;5010489;28;20068;-71
2024/01/22 13:29:26;;;;;;;4.95;3.53;;;;;;;;;;4993419;28;20041;-72
2024/01/22 13:31:52;;;;;;;6.35;5.75;;;;;;;;;;5010884;28;20100;-72
2024/01/22 13:34:18;;;;;;;6.80;4.93;;;;;;;;;;5014048;28;20042;-71
2024/01/22 13:36:45;;;;;;;4.63;4.28;;;;;;;;;;5025480;28;20366;-72
2024/01/22 13:39:12;;;;;;;4.63;4.18;;;;;;;;;;5050275;28;20579;-72
2024/01/22 13:41:38;;;;;;;6.05;4.60;;;;;;;;;;5032036;28;20111;-72
2024/01/22 13:44:09;;;;;;;4.88;4.25;;;;;;;;;;5050169;28;20131;-72
2024/01/22 13:46:35;;;;;;;4.75;4.35;;;;;;;;;;5032030;28;20039;-72
2024/01/22 13:49:03;;;;;;;5.20;3.92;;;;;;;;;;5049612;28;20040;-72
2024/01/22 13:51:28;;;;;;;6.20;4.35;;;;;;;;;;5049924;28;20547;-72
2024/01/22 13:53:54;;;;;;;7.05;4.05;;;;;;;;;;5049210;28;20123;-72
2024/01/22 13:56:20;;;;;;;5.13;3.67;;;;;;;;;;5015291;28;20672;-72
2024/01/22 13:58:46;;;;;;;4.95;4.28;;;;;;;;;;5013777;28;20036;-73
2024/01/22 14:01:12;;;;;;;5.53;4.97;;;;;;;;;;5015303;28;20495;-73
2024/01/22 14:03:38;;;;;;;5.82;5.00;;;;;;;;;;5014337;28;20108;-71
2024/01/22 14:06:06;;;;;;;4.28;3.90;;;;;;;;;;5049530;28;20056;-72
2024/01/22 14:08:32;;;;;;;4.22;3.83;;;;;;;;;;5032017;28;20088;-72
2024/01/22 14:10:58;;;;;;;4.88;4.45;;;;;;;;;;5048956;28;20128;-72
2024/01/22 14:13:24;;;;;;;6.07;3.60;;;;;;;;;;5049476;28;20143;-73
2024/01/22 14:15:49;;;;;;;5.25;4.32;;;;;;;;;;5048602;28;20044;-72
2024/01/22 14:18:16;;;;;;;5.95;3.92;;;;;;;;;;5049146;28;20029;-71
2024/01/22 14:20:42;;;;;;;6.68;5.22;;;;;;;;;;5030450;28;20136;-72
2024/01/22 14:23:08;;;;;;;4.07;3.50;;;;;;;;;;5048711;28;20116;-72
2024/01/22 14:25:35;;;;;;;9.13;5.75;;;;;;;;;;5014350;28;20500;-72
2024/01/22 14:28:01;;;;;;;6.55;5.95;;;;;;;;;;5048904;28;20571;-72